Terminal Aerodrome Forecast
Issued by NWS

Home | Current Version | Previous Version | Graphics & Text | Print | Product List | Glossary On
Versions: 1 2 3 4 5 6 7 8 9 10 11 12 13 14 15 16 17 18 19 20
534
FTUS43 KBIS 240528
TAFMOT
TAF
KMOT 240528Z 2406/2506 VRB03KT P6SM FEW250
     FM241500 24007KT P6SM SCT200
     FM250200 27004KT P6SM FEW250=

USA.gov is the U.S. government's official web portal to all federal, state and local government web resources and services.